sensor_id;sensor_type;location;lat;lon;timestamp;pressure;altitude;pressure_sealevel;temperature;humidity
42067;BME280;27734;47.028;28.820;2022-10-04T00:01:11;100146.64;;;11.01;75.55
42067;BME280;27734;47.028;28.820;2022-10-04T00:03:45;100150.05;;;10.97;75.03
42067;BME280;27734;47.028;28.820;2022-10-04T00:06:21;100153.46;;;10.94;74.92
42067;BME280;27734;47.028;28.820;2022-10-04T00:08:55;100149.91;;;10.92;74.88
42067;BME280;27734;47.028;28.820;2022-10-04T00:11:31;100149.91;;;10.92;74.98
42067;BME280;27734;47.028;28.820;2022-10-04T00:14:07;100156.83;;;10.90;75.40
42067;BME280;27734;47.028;28.820;2022-10-04T00:16:40;100160.28;;;10.88;75.59
42067;BME280;27734;47.028;28.820;2022-10-04T00:19:38;100160.23;;;10.86;76.08
42067;BME280;27734;47.028;28.820;2022-10-04T00:22:13;100166.23;;;10.82;75.59
42067;BME280;27734;47.028;28.820;2022-10-04T00:31:10;100178.16;;;10.71;76.46
42067;BME280;27734;47.028;28.820;2022-10-04T00:33:42;100178.89;;;10.67;76.19
42067;BME280;27734;47.028;28.820;2022-10-04T00:36:54;100177.01;;;10.63;76.04
42067;BME280;27734;47.028;28.820;2022-10-04T00:39:42;100179.49;;;10.58;76.12
42067;BME280;27734;47.028;28.820;2022-10-04T00:42:22;100175.94;;;10.56;76.34
42067;BME280;27734;47.028;28.820;2022-10-04T00:45:00;100176.76;;;10.53;76.47
42067;BME280;27734;47.028;28.820;2022-10-04T00:47:52;100169.63;;;10.49;76.84
42067;BME280;27734;47.028;28.820;2022-10-04T00:50:31;100177.45;;;10.48;77.06
42067;BME280;27734;47.028;28.820;2022-10-04T00:53:13;100178.19;;;10.43;76.45
42067;BME280;27734;47.028;28.820;2022-10-04T00:55:47;100169.39;;;10.41;77.10
42067;BME280;27734;47.028;28.820;2022-10-04T00:58:24;100170.13;;;10.37;76.87
42067;BME280;27734;47.028;28.820;2022-10-04T01:00:57;100168.27;;;10.33;76.65
42067;BME280;27734;47.028;28.820;2022-10-04T01:03:33;100175.14;;;10.31;77.07
42067;BME280;27734;47.028;28.820;2022-10-04T01:06:08;100176.84;;;10.29;76.85
42067;BME280;27734;47.028;28.820;2022-10-04T01:08:47;100171.49;;;10.26;77.36
42067;BME280;27734;47.028;28.820;2022-10-04T01:11:21;100173.23;;;10.25;76.83
42067;BME280;27734;47.028;28.820;2022-10-04T01:13:57;100164.45;;;10.25;76.45
42067;BME280;27734;47.028;28.820;2022-10-04T01:16:32;100168.78;;;10.23;76.88
42067;BME280;27734;47.028;28.820;2022-10-04T01:19:23;100171.34;;;10.21;76.63
42067;BME280;27734;47.028;28.820;2022-10-04T01:22:09;100189.60;;;10.18;77.00
42067;BME280;27734;47.028;28.820;2022-10-04T01:24:42;100186.00;;;10.15;76.97
42067;BME280;27734;47.028;28.820;2022-10-04T01:27:39;100194.64;;;10.12;76.61
42067;BME280;27734;47.028;28.820;2022-10-04T01:30:14;100191.09;;;10.10;77.22
42067;BME280;27734;47.028;28.820;2022-10-04T01:32:46;100191.88;;;10.07;77.13
42067;BME280;27734;47.028;28.820;2022-10-04T01:35:17;100204.11;;;10.07;77.37
42067;BME280;27734;47.028;28.820;2022-10-04T01:37:49;100194.30;;;10.01;76.61
42067;BME280;27734;47.028;28.820;2022-10-04T01:40:20;100204.73;;;10.00;76.57
42067;BME280;27734;47.028;28.820;2022-10-04T01:42:54;100211.77;;;10.01;76.70
42067;BME280;27734;47.028;28.820;2022-10-04T01:45:33;100214.28;;;9.98;77.21
42067;BME280;27734;47.028;28.820;2022-10-04T01:48:08;100213.35;;;9.96;76.95
42067;BME280;27734;47.028;28.820;2022-10-04T01:50:44;100213.30;;;9.94;76.61
42067;BME280;27734;47.028;28.820;2022-10-04T01:53:21;100210.63;;;9.93;77.13
42067;BME280;27734;47.028;28.820;2022-10-04T01:55:55;100215.81;;;9.91;76.46
42067;BME280;27734;47.028;28.820;2022-10-04T01:58:40;100214.91;;;9.90;76.94
42067;BME280;27734;47.028;28.820;2022-10-04T02:01:15;100218.44;;;9.91;77.17
42067;BME280;27734;47.028;28.820;2022-10-04T02:03:53;100220.20;;;9.92;77.28
42067;BME280;27734;47.028;28.820;2022-10-04T02:06:28;100218.44;;;9.91;76.44
42067;BME280;27734;47.028;28.820;2022-10-04T02:09:05;100224.51;;;9.90;77.11
42067;BME280;27734;47.028;28.820;2022-10-04T02:11:39;100230.63;;;9.90;77.25
42067;BME280;27734;47.028;28.820;2022-10-04T02:14:16;100235.81;;;9.89;76.78
42067;BME280;27734;47.028;28.820;2022-10-04T02:16:49;100230.52;;;9.87;76.52
42067;BME280;27734;47.028;28.820;2022-10-04T02:19:24;100237.50;;;9.87;77.23
42067;BME280;27734;47.028;28.820;2022-10-04T02:21:57;100229.59;;;9.85;76.50
42067;BME280;27734;47.028;28.820;2022-10-04T02:24:33;100229.54;;;9.84;76.75
42067;BME280;27734;47.028;28.820;2022-10-04T02:27:06;100225.17;;;9.84;77.12
42067;BME280;27734;47.028;28.820;2022-10-04T02:29:37;100227.75;;;9.83;77.14
42067;BME280;27734;47.028;28.820;2022-10-04T02:32:10;100226.81;;;9.81;76.63
42067;BME280;27734;47.028;28.820;2022-10-04T02:35:02;100233.74;;;9.79;76.45
42067;BME280;27734;47.028;28.820;2022-10-04T02:37:34;100235.45;;;9.78;76.32
42067;BME280;27734;47.028;28.820;2022-10-04T02:40:11;100238.98;;;9.79;76.47
42067;BME280;27734;47.028;28.820;2022-10-04T02:42:48;100239.81;;;9.78;76.44
42067;BME280;27734;47.028;28.820;2022-10-04T02:45:26;100240.63;;;9.77;76.88
42067;BME280;27734;47.028;28.820;2022-10-04T02:48:02;100244.06;;;9.74;76.67
42067;BME280;27734;47.028;28.820;2022-10-04T02:50:38;100249.25;;;9.73;77.05
42067;BME280;27734;47.028;28.820;2022-10-04T02:53:23;100250.84;;;9.69;76.83
42067;BME280;27734;47.028;28.820;2022-10-04T02:55:56;100247.23;;;9.65;77.01
42067;BME280;27734;47.028;28.820;2022-10-04T02:58:28;100254.11;;;9.62;76.69
42067;BME280;27734;47.028;28.820;2022-10-04T03:01:01;100256.62;;;9.59;77.46
42067;BME280;27734;47.028;28.820;2022-10-04T03:03:33;100250.36;;;9.55;77.01
42067;BME280;27734;47.028;28.820;2022-10-04T03:06:09;100264.20;;;9.51;76.76
42067;BME280;27734;47.028;28.820;2022-10-04T03:08:47;100255.34;;;9.47;77.70
42067;BME280;27734;47.028;28.820;2022-10-04T03:11:21;100263.09;;;9.44;77.79
42067;BME280;27734;47.028;28.820;2022-10-04T03:13:56;100256.77;;;9.39;77.66
42067;BME280;27734;47.028;28.820;2022-10-04T03:16:34;100261.84;;;9.34;77.38
42067;BME280;27734;47.028;28.820;2022-10-04T03:19:07;100272.14;;;9.30;77.93
42067;BME280;27734;47.028;28.820;2022-10-04T03:21:45;100264.12;;;9.25;77.90
42067;BME280;27734;47.028;28.820;2022-10-04T03:24:19;100258.77;;;9.22;77.89
42067;BME280;27734;47.028;28.820;2022-10-04T03:26:53;100270.04;;;9.20;77.79
42067;BME280;27734;47.028;28.820;2022-10-04T03:29:27;100262.07;;;9.16;77.63
42067;BME280;27734;47.028;28.820;2022-10-04T03:32:02;100264.57;;;9.13;77.66
42067;BME280;27734;47.028;28.820;2022-10-04T03:34:36;100264.45;;;9.10;77.63
42067;BME280;27734;47.028;28.820;2022-10-04T03:37:10;100262.72;;;9.11;78.00
42067;BME280;27734;47.028;28.820;2022-10-04T03:39:46;100262.66;;;9.09;78.04
42067;BME280;27734;47.028;28.820;2022-10-04T03:42:20;100263.55;;;9.10;78.37
42067;BME280;27734;47.028;28.820;2022-10-04T03:44:54;100265.34;;;9.11;77.87
42067;BME280;27734;47.028;28.820;2022-10-04T03:47:28;100271.45;;;9.11;77.69
42067;BME280;27734;47.028;28.820;2022-10-04T03:50:04;100267.13;;;9.12;78.10
42067;BME280;27734;47.028;28.820;2022-10-04T03:52:36;100269.80;;;9.13;77.77
42067;BME280;27734;47.028;28.820;2022-10-04T03:55:11;100270.58;;;9.11;77.65
42067;BME280;27734;47.028;28.820;2022-10-04T03:57:44;100261.78;;;9.09;78.01
42067;BME280;27734;47.028;28.820;2022-10-04T04:00:17;100273.95;;;9.08;77.75
42067;BME280;27734;47.028;28.820;2022-10-04T04:02:51;100272.19;;;9.07;78.17
42067;BME280;27734;47.028;28.820;2022-10-04T04:05:30;100276.45;;;9.05;78.43
42067;BME280;27734;47.028;28.820;2022-10-04T04:08:05;100279.02;;;9.04;78.31
42067;BME280;27734;47.028;28.820;2022-10-04T04:10:41;100285.98;;;9.03;78.26
42067;BME280;27734;47.028;28.820;2022-10-04T04:13:24;100289.48;;;9.04;77.78
42067;BME280;27734;47.028;28.820;2022-10-04T04:15:58;100284.30;;;9.05;79.04
42067;BME280;27734;47.028;28.820;2022-10-04T04:18:32;100287.78;;;9.04;78.00
42067;BME280;27734;47.028;28.820;2022-10-04T04:21:06;100296.57;;;9.06;78.27
42067;BME280;27734;47.028;28.820;2022-10-04T04:23:39;100301.80;;;9.06;78.71
42067;BME280;27734;47.028;28.820;2022-10-04T04:26:20;100308.72;;;9.04;78.33
42067;BME280;27734;47.028;28.820;2022-10-04T04:28:57;100300.75;;;9.01;78.74
42067;BME280;27734;47.028;28.820;2022-10-04T04:31:35;100311.22;;;9.01;79.49
42067;BME280;27734;47.028;28.820;2022-10-04T04:34:16;100310.23;;;8.99;78.87
42067;BME280;27734;47.028;28.820;2022-10-04T04:36:49;100325.88;;;8.97;79.19
42067;BME280;27734;47.028;28.820;2022-10-04T04:39:22;100318.89;;;8.96;79.45
42067;BME280;27734;47.028;28.820;2022-10-04T04:42:15;100327.68;;;8.98;79.71
42067;BME280;27734;47.028;28.820;2022-10-04T04:44:50;100322.44;;;8.98;78.89
42067;BME280;27734;47.028;28.820;2022-10-04T04:47:30;100332.16;;;9.01;79.22
42067;BME280;27734;47.028;28.820;2022-10-04T04:50:06;100340.12;;;9.04;79.09
42067;BME280;27734;47.028;28.820;2022-10-04T04:52:39;100343.75;;;9.08;79.72
42067;BME280;27734;47.028;28.820;2022-10-04T04:55:19;100348.28;;;9.12;79.59
42067;BME280;27734;47.028;28.820;2022-10-04T04:57:52;100350.16;;;9.16;79.46
42067;BME280;27734;47.028;28.820;2022-10-04T05:00:30;100359.05;;;9.20;79.66
42067;BME280;27734;47.028;28.820;2022-10-04T05:03:14;100360.17;;;9.26;79.75
42067;BME280;27734;47.028;28.820;2022-10-04T05:05:47;100360.29;;;9.29;79.42
42067;BME280;27734;47.028;28.820;2022-10-04T05:08:22;100365.77;;;9.35;79.21
42067;BME280;27734;47.028;28.820;2022-10-04T05:11:03;100369.56;;;9.44;79.80
42067;BME280;27734;47.028;28.820;2022-10-04T05:13:40;100378.70;;;9.55;79.24
42067;BME280;27734;47.028;28.820;2022-10-04T05:16:17;100372.82;;;9.61;79.85
42067;BME280;27734;47.028;28.820;2022-10-04T05:18:55;100382.59;;;9.65;79.74
42067;BME280;27734;47.028;28.820;2022-10-04T05:21:29;100391.33;;;9.65;78.97
42067;BME280;27734;47.028;28.820;2022-10-04T05:24:10;100396.80;;;9.71;79.37
42067;BME280;27734;47.028;28.820;2022-10-04T05:26:43;100395.35;;;9.80;79.35
42067;BME280;27734;47.028;28.820;2022-10-04T05:29:18;100397.38;;;9.87;79.11
42067;BME280;27734;47.028;28.820;2022-10-04T05:32:01;100401.91;;;9.91;79.47
42067;BME280;27734;47.028;28.820;2022-10-04T05:34:39;100402.78;;;9.92;78.91
42067;BME280;27734;47.028;28.820;2022-10-04T05:40:03;100413.33;;;9.93;78.81
42067;BME280;27734;47.028;28.820;2022-10-04T05:42:40;100409.88;;;9.94;78.58
42067;BME280;27734;47.028;28.820;2022-10-04T05:45:18;100412.62;;;9.97;78.78
42067;BME280;27734;47.028;28.820;2022-10-04T05:47:54;100419.73;;;10.01;79.05
42067;BME280;27734;47.028;28.820;2022-10-04T05:50:30;100424.21;;;10.04;79.35
42067;BME280;27734;47.028;28.820;2022-10-04T05:53:21;100429.56;;;10.07;79.32
42067;BME280;27734;47.028;28.820;2022-10-04T05:56:02;100435.75;;;10.09;79.23
42067;BME280;27734;47.028;28.820;2022-10-04T05:58:52;100430.50;;;10.09;78.80
42067;BME280;27734;47.028;28.820;2022-10-04T06:01:39;100429.73;;;10.12;79.05
42067;BME280;27734;47.028;28.820;2022-10-04T06:04:32;100435.09;;;10.15;78.75
42067;BME280;27734;47.028;28.820;2022-10-04T06:07:16;100443.18;;;10.21;79.27
42067;BME280;27734;47.028;28.820;2022-10-04T06:10:07;100440.84;;;10.29;79.41
42067;BME280;27734;47.028;28.820;2022-10-04T06:12:50;100439.20;;;10.32;79.22
42067;BME280;27734;47.028;28.820;2022-10-04T06:15:54;100450.66;;;10.34;79.32
42067;BME280;27734;47.028;28.820;2022-10-04T06:21:25;100455.41;;;10.45;78.87
42067;BME280;27734;47.028;28.820;2022-10-04T06:24:03;100457.42;;;10.52;79.15
42067;BME280;27734;47.028;28.820;2022-10-04T06:26:46;100457.61;;;10.58;78.72
42067;BME280;27734;47.028;28.820;2022-10-04T06:29:23;100472.63;;;10.62;78.22
42067;BME280;27734;47.028;28.820;2022-10-04T06:32:19;100477.99;;;10.65;77.39
42067;BME280;27734;47.028;28.820;2022-10-04T06:38:22;100474.91;;;10.77;77.62
42067;BME280;27734;47.028;28.820;2022-10-04T06:41:20;100477.80;;;10.85;77.63
42067;BME280;27734;47.028;28.820;2022-10-04T06:47:13;100469.48;;;10.98;77.60
42067;BME280;27734;47.028;28.820;2022-10-04T06:49:51;100483.95;;;11.12;77.61
42067;BME280;27734;47.028;28.820;2022-10-04T06:52:37;100478.23;;;11.24;77.48
42067;BME280;27734;47.028;28.820;2022-10-04T06:55:33;100471.58;;;11.36;77.05
42067;BME280;27734;47.028;28.820;2022-10-04T07:01:27;100489.29;;;11.70;76.26
42067;BME280;27734;47.028;28.820;2022-10-04T07:04:16;100470.89;;;11.70;74.28
42067;BME280;27734;47.028;28.820;2022-10-04T07:06:54;100470.34;;;11.80;75.33
42067;BME280;27734;47.028;28.820;2022-10-04T07:09:55;100480.61;;;12.00;75.21
42067;BME280;27734;47.028;28.820;2022-10-04T07:12:34;100475.67;;;12.12;74.63
42067;BME280;27734;47.028;28.820;2022-10-04T07:15:18;100476.98;;;12.27;74.19
42067;BME280;27734;47.028;28.820;2022-10-04T07:18:10;100487.86;;;12.39;73.20
42067;BME280;27734;47.028;28.820;2022-10-04T07:20:44;100480.27;;;12.50;73.48
42067;BME280;27734;47.028;28.820;2022-10-04T07:23:32;100494.56;;;12.59;73.15
42067;BME280;27734;47.028;28.820;2022-10-04T07:26:27;100492.30;;;12.73;72.79
42067;BME280;27734;47.028;28.820;2022-10-04T07:29:17;100496.06;;;12.83;70.77
42067;BME280;27734;47.028;28.820;2022-10-04T07:32:19;100498.09;;;12.93;69.62
42067;BME280;27734;47.028;28.820;2022-10-04T07:35:01;100495.55;;;12.97;68.57
42067;BME280;27734;47.028;28.820;2022-10-04T07:37:44;100503.52;;;13.00;69.65
42067;BME280;27734;47.028;28.820;2022-10-04T07:40:24;100502.85;;;13.08;69.63
42067;BME280;27734;47.028;28.820;2022-10-04T07:43:01;100500.48;;;13.19;68.31
42067;BME280;27734;47.028;28.820;2022-10-04T07:45:46;100500.91;;;13.35;70.29
42067;BME280;27734;47.028;28.820;2022-10-04T07:48:23;100494.09;;;13.44;68.19
42067;BME280;27734;47.028;28.820;2022-10-04T07:51:03;100510.94;;;13.50;68.22
42067;BME280;27734;47.028;28.820;2022-10-04T07:53:43;100512.92;;;13.60;68.34
42067;BME280;27734;47.028;28.820;2022-10-04T07:56:29;100526.36;;;13.71;67.32
42067;BME280;27734;47.028;28.820;2022-10-04T07:59:24;100516.86;;;13.79;67.03
42067;BME280;27734;47.028;28.820;2022-10-04T08:02:19;100517.81;;;13.81;65.93
42067;BME280;27734;47.028;28.820;2022-10-04T08:05:24;100521.44;;;13.86;65.85
42067;BME280;27734;47.028;28.820;2022-10-04T08:08:19;100510.11;;;13.90;65.45
42067;BME280;27734;47.028;28.820;2022-10-04T08:11:06;100518.16;;;13.96;64.21
42067;BME280;27734;47.028;28.820;2022-10-04T08:13:53;100523.47;;;13.98;63.95
42067;BME280;27734;47.028;28.820;2022-10-04T08:16:35;100541.84;;;13.93;59.65
42067;BME280;27734;47.028;28.820;2022-10-04T08:19:21;100527.52;;;13.83;59.76
42067;BME280;27734;47.028;28.820;2022-10-04T08:22:31;100534.02;;;13.98;61.49
42067;BME280;27734;47.028;28.820;2022-10-04T08:25:10;100536.83;;;14.06;61.58
42067;BME280;27734;47.028;28.820;2022-10-04T08:31:14;100531.05;;;14.24;62.17
42067;BME280;27734;47.028;28.820;2022-10-04T08:34:21;100536.48;;;14.31;60.33
42067;BME280;27734;47.028;28.820;2022-10-04T08:40:53;100540.16;;;14.39;59.45
42067;BME280;27734;47.028;28.820;2022-10-04T08:53:32;100542.91;;;14.87;60.45
42067;BME280;27734;47.028;28.820;2022-10-04T08:56:19;100539.50;;;14.94;60.12
42067;BME280;27734;47.028;28.820;2022-10-04T09:02:23;100551.04;;;14.98;56.90
42067;BME280;27734;47.028;28.820;2022-10-04T09:09:00;100538.68;;;14.97;57.27
42067;BME280;27734;47.028;28.820;2022-10-04T09:12:10;100540.61;;;15.05;56.83
42067;BME280;27734;47.028;28.820;2022-10-04T09:15:17;100541.52;;;15.07;55.24
42067;BME280;27734;47.028;28.820;2022-10-04T09:18:03;100547.85;;;15.17;54.89
42067;BME280;27734;47.028;28.820;2022-10-04T09:20:50;100547.08;;;15.23;54.86
42067;BME280;27734;47.028;28.820;2022-10-04T09:26:39;100546.43;;;15.38;54.96
42067;BME280;27734;47.028;28.820;2022-10-04T09:29:31;100546.59;;;15.47;55.10
42067;BME280;27734;47.028;28.820;2022-10-04T09:32:23;100540.57;;;15.56;54.18
42067;BME280;27734;47.028;28.820;2022-10-04T09:41:40;100548.77;;;15.73;53.39
42067;BME280;27734;47.028;28.820;2022-10-04T09:47:44;100562.11;;;15.77;51.67
42067;BME280;27734;47.028;28.820;2022-10-04T09:50:51;100565.66;;;15.79;52.71
42067;BME280;27734;47.028;28.820;2022-10-04T09:53:40;100574.59;;;15.88;51.20
42067;BME280;27734;47.028;28.820;2022-10-04T09:56:25;100560.41;;;15.83;51.09
42067;BME280;27734;47.028;28.820;2022-10-04T10:05:28;100567.77;;;16.02;50.62
42067;BME280;27734;47.028;28.820;2022-10-04T10:08:21;100566.05;;;16.06;50.31
42067;BME280;27734;47.028;28.820;2022-10-04T10:11:09;100567.92;;;16.13;49.78
42067;BME280;27734;47.028;28.820;2022-10-04T10:14:17;100566.28;;;16.23;50.45
42067;BME280;27734;47.028;28.820;2022-10-04T10:17:07;100572.50;;;16.26;49.68
42067;BME280;27734;47.028;28.820;2022-10-04T10:23:30;100563.77;;;16.32;48.37
42067;BME280;27734;47.028;28.820;2022-10-04T10:26:29;100562.95;;;16.39;49.68
42067;BME280;27734;47.028;28.820;2022-10-04T10:32:57;100578.33;;;16.68;49.24
42067;BME280;27734;47.028;28.820;2022-10-04T10:35:48;100583.67;;;16.71;47.77
42067;BME280;27734;47.028;28.820;2022-10-04T10:38:35;100579.08;;;16.58;48.64
42067;BME280;27734;47.028;28.820;2022-10-04T10:44:37;100573.69;;;16.50;48.97
42067;BME280;27734;47.028;28.820;2022-10-04T10:47:40;100580.89;;;16.60;48.53
42067;BME280;27734;47.028;28.820;2022-10-04T10:54:09;100575.94;;;16.86;48.57
42067;BME280;27734;47.028;28.820;2022-10-04T10:57:01;100576.10;;;17.02;48.38
42067;BME280;27734;47.028;28.820;2022-10-04T11:03:42;100576.25;;;17.16;47.64
42067;BME280;27734;47.028;28.820;2022-10-04T11:06:46;100570.87;;;17.08;47.69
42067;BME280;27734;47.028;28.820;2022-10-04T11:09:38;100571.68;;;17.02;48.21
42067;BME280;27734;47.028;28.820;2022-10-04T11:19:02;100572.75;;;17.21;46.58
42067;BME280;27734;47.028;28.820;2022-10-04T11:28:14;100579.73;;;17.12;46.94
42067;BME280;27734;47.028;28.820;2022-10-04T11:31:21;100576.23;;;17.14;47.04
42067;BME280;27734;47.028;28.820;2022-10-04T11:34:26;100590.31;;;17.10;45.54
42067;BME280;27734;47.028;28.820;2022-10-04T11:37:26;100591.88;;;16.89;45.73
42067;BME280;27734;47.028;28.820;2022-10-04T11:40:22;100590.85;;;16.80;46.92
42067;BME280;27734;47.028;28.820;2022-10-04T11:43:30;100597.89;;;16.79;46.26
42067;BME280;27734;47.028;28.820;2022-10-04T11:46:23;100604.88;;;16.73;46.12
42067;BME280;27734;47.028;28.820;2022-10-04T11:49:41;100598.55;;;16.60;45.31
42067;BME280;27734;47.028;28.820;2022-10-04T11:55:58;100601.28;;;16.66;46.33
42067;BME280;27734;47.028;28.820;2022-10-04T11:58:55;100603.15;;;16.76;46.60
42067;BME280;27734;47.028;28.820;2022-10-04T12:14:33;100599.98;;;17.03;46.90
42067;BME280;27734;47.028;28.820;2022-10-04T12:17:38;100604.45;;;17.11;46.00
42067;BME280;27734;47.028;28.820;2022-10-04T12:26:56;100610.46;;;16.93;45.70
42067;BME280;27734;47.028;28.820;2022-10-04T12:29:57;100614.83;;;16.91;45.67
42067;BME280;27734;47.028;28.820;2022-10-04T12:32:37;100602.48;;;16.91;45.76
42067;BME280;27734;47.028;28.820;2022-10-04T12:35:27;100612.20;;;16.92;46.06
42067;BME280;27734;47.028;28.820;2022-10-04T12:38:41;100611.30;;;16.90;45.99
42067;BME280;27734;47.028;28.820;2022-10-04T12:41:33;100619.23;;;16.88;45.86
42067;BME280;27734;47.028;28.820;2022-10-04T12:44:23;100617.52;;;16.94;45.79
42067;BME280;27734;47.028;28.820;2022-10-04T12:47:27;100622.85;;;16.97;45.53
42067;BME280;27734;47.028;28.820;2022-10-04T12:50:13;100621.06;;;16.93;45.31
42067;BME280;27734;47.028;28.820;2022-10-04T12:52:58;100616.66;;;16.95;45.25
42067;BME280;27734;47.028;28.820;2022-10-04T12:56:03;100622.03;;;17.01;45.64
42067;BME280;27734;47.028;28.820;2022-10-04T12:58:50;100615.90;;;17.05;45.63
42067;BME280;27734;47.028;28.820;2022-10-04T13:01:46;100622.05;;;17.02;45.41
42067;BME280;27734;47.028;28.820;2022-10-04T13:07:58;100623.01;;;17.11;45.77
42067;BME280;27734;47.028;28.820;2022-10-04T13:10:46;100622.12;;;17.10;45.26
42067;BME280;27734;47.028;28.820;2022-10-04T13:13:41;100618.62;;;17.11;45.14
42067;BME280;27734;47.028;28.820;2022-10-04T13:16:19;100626.66;;;17.19;44.91
42067;BME280;27734;47.028;28.820;2022-10-04T13:19:01;100621.41;;;17.23;45.64
42067;BME280;27734;47.028;28.820;2022-10-04T13:24:43;100633.78;;;17.26;44.89
42067;BME280;27734;47.028;28.820;2022-10-04T13:27:35;100629.34;;;17.22;44.47
42067;BME280;27734;47.028;28.820;2022-10-04T13:30:24;100632.80;;;17.16;44.28
42067;BME280;27734;47.028;28.820;2022-10-04T13:33:10;100639.83;;;17.11;43.89
42067;BME280;27734;47.028;28.820;2022-10-04T13:36:03;100643.25;;;17.02;43.76
42067;BME280;27734;47.028;28.820;2022-10-04T13:39:05;100639.67;;;16.97;44.33
42067;BME280;27734;47.028;28.820;2022-10-04T13:42:04;100631.66;;;16.93;44.18
42067;BME280;27734;47.028;28.820;2022-10-04T13:45:07;100642.20;;;16.88;44.43
42067;BME280;27734;47.028;28.820;2022-10-04T13:48:02;100643.02;;;16.85;44.79
42067;BME280;27734;47.028;28.820;2022-10-04T13:51:00;100646.56;;;16.84;44.64
42067;BME280;27734;47.028;28.820;2022-10-04T13:53:53;100655.29;;;16.77;44.03
42067;BME280;27734;47.028;28.820;2022-10-04T13:57:10;100656.96;;;16.69;44.31
42067;BME280;27734;47.028;28.820;2022-10-04T13:59:58;100656.00;;;16.65;44.84
42067;BME280;27734;47.028;28.820;2022-10-04T14:03:01;100657.75;;;16.63;44.52
42067;BME280;27734;47.028;28.820;2022-10-04T14:06:02;100650.60;;;16.58;45.02
42067;BME280;27734;47.028;28.820;2022-10-04T14:08:52;100654.95;;;16.52;44.25
42067;BME280;27734;47.028;28.820;2022-10-04T14:15:14;100665.38;;;16.40;44.70
42067;BME280;27734;47.028;28.820;2022-10-04T14:18:29;100671.53;;;16.39;44.71
42067;BME280;27734;47.028;28.820;2022-10-04T14:24:49;100690.00;;;16.34;45.33
42067;BME280;27734;47.028;28.820;2022-10-04T14:28:12;100690.84;;;16.30;45.49
42067;BME280;27734;47.028;28.820;2022-10-04T14:30:59;100687.22;;;16.24;44.73
42067;BME280;27734;47.028;28.820;2022-10-04T14:33:50;100695.11;;;16.21;45.57
42067;BME280;27734;47.028;28.820;2022-10-04T14:39:28;100695.87;;;16.13;46.00
42067;BME280;27734;47.028;28.820;2022-10-04T14:42:21;100698.48;;;16.12;46.09
42067;BME280;27734;47.028;28.820;2022-10-04T14:45:32;100703.73;;;16.09;45.15
42067;BME280;27734;47.028;28.820;2022-10-04T14:48:34;100708.13;;;16.07;45.64
42067;BME280;27734;47.028;28.820;2022-10-04T14:51:19;100715.07;;;16.02;45.55
42067;BME280;27734;47.028;28.820;2022-10-04T14:54:01;100716.81;;;15.99;45.61
42067;BME280;27734;47.028;28.820;2022-10-04T14:59:48;100719.33;;;15.92;46.43
42067;BME280;27734;47.028;28.820;2022-10-04T15:02:38;100721.86;;;15.86;46.24
42067;BME280;27734;47.028;28.820;2022-10-04T15:05:43;100727.10;;;15.83;46.06
42067;BME280;27734;47.028;28.820;2022-10-04T15:08:42;100729.59;;;15.76;46.61
42067;BME280;27734;47.028;28.820;2022-10-04T15:11:18;100732.10;;;15.69;46.56
42067;BME280;27734;47.028;28.820;2022-10-04T15:14:18;100740.84;;;15.63;46.90
42067;BME280;27734;47.028;28.820;2022-10-04T15:16:55;100741.57;;;15.56;46.17
42067;BME280;27734;47.028;28.820;2022-10-04T15:19:30;100744.09;;;15.50;46.94
42067;BME280;27734;47.028;28.820;2022-10-04T15:22:09;100748.38;;;15.43;46.65
42067;BME280;27734;47.028;28.820;2022-10-04T15:24:50;100760.56;;;15.36;46.66
42067;BME280;27734;47.028;28.820;2022-10-04T15:27:45;100761.29;;;15.27;46.39
42067;BME280;27734;47.028;28.820;2022-10-04T15:30:29;100761.12;;;15.20;46.66
42067;BME280;27734;47.028;28.820;2022-10-04T15:33:23;100760.94;;;15.10;47.13
42067;BME280;27734;47.028;28.820;2022-10-04T15:36:13;100768.77;;;15.06;47.41
42067;BME280;27734;47.028;28.820;2022-10-04T15:38:54;100773.06;;;15.01;47.60
42067;BME280;27734;47.028;28.820;2022-10-04T15:41:38;100779.94;;;14.94;46.91
42067;BME280;27734;47.028;28.820;2022-10-04T15:47:10;100795.58;;;14.85;47.84
42067;BME280;27734;47.028;28.820;2022-10-04T15:49:56;100806.95;;;14.81;47.22
42067;BME280;27734;47.028;28.820;2022-10-04T15:52:52;100803.30;;;14.76;47.82
42067;BME280;27734;47.028;28.820;2022-10-04T15:55:51;100806.73;;;14.71;47.22
42067;BME280;27734;47.028;28.820;2022-10-04T15:58:41;100805.78;;;14.68;48.28
42067;BME280;27734;47.028;28.820;2022-10-04T16:01:35;100811.80;;;14.62;47.44
42067;BME280;27734;47.028;28.820;2022-10-04T16:04:36;100816.02;;;14.55;48.80
42067;BME280;27734;47.028;28.820;2022-10-04T16:07:34;100823.83;;;14.51;47.93
42067;BME280;27734;47.028;28.820;2022-10-04T16:10:20;100829.80;;;14.44;48.11
42067;BME280;27734;47.028;28.820;2022-10-04T16:13:20;100832.36;;;14.41;48.83
42067;BME280;27734;47.028;28.820;2022-10-04T16:19:14;100847.95;;;14.31;49.10
42067;BME280;27734;47.028;28.820;2022-10-04T16:21:53;100845.20;;;14.27;49.15
42067;BME280;27734;47.028;28.820;2022-10-04T16:24:52;100859.20;;;14.24;48.88
42067;BME280;27734;47.028;28.820;2022-10-04T16:27:45;100847.63;;;14.19;48.98
42067;BME280;27734;47.028;28.820;2022-10-04T16:30:25;100865.02;;;14.11;50.19
42067;BME280;27734;47.028;28.820;2022-10-04T16:33:23;100868.33;;;14.03;49.66
42067;BME280;27734;47.028;28.820;2022-10-04T16:36:10;100869.88;;;13.95;49.22
42067;BME280;27734;47.028;28.820;2022-10-04T16:38:50;100872.34;;;13.89;49.78